This demonstration page uses our WeatherBlox Daily Observations layout. Learn more.

41.55636, -103.73856

Hourly Observations for May 7, 2017

Temp ( °F °C ) Dew Point ( °F °C ) Humidity (%) Winds ( mph kmh ) Pressure ( in mb ) Visibility ( mi km ) Precip ( " mm )
12:53 am 00:53 Clear 63 17.2 44 6.7 50 50 ESE 10 17 29.65 1004 10 16.0934 0 0
1:53 am 01:53 Clear 58 14.4 44 6.7 60 60 E 13 20 29.64 1004 10 16.0934 0 0
2:53 am 02:53 Clear 56 13.3 44 6.7 65 65 E 10 17 29.63 1004 10 16.0934 0 0
3:53 am 03:53 Clear 54 12.2 44 6.7 69 69 E 9 15 29.64 1004 10 16.0934 0 0
4:53 am 04:53 Clear 50 10 43 6.1 77 77 ESE 8 13 29.66 1005 10 16.0934 0 0
5:53 am 05:53 Sunny 50 10 43 6.1 77 77 E 6 9 29.66 1004 10 16.0934 0 0
6:53 am 06:53 Sunny 55 12.8 46 7.8 72 72 ESE 8 13 29.67 1005 10 16.0934 0 0
7:53 am 07:53 Sunny 57 13.9 46 7.8 67 67 ESE 9 15 29.7 1006 7 11.26538 0 0
8:53 am 08:53 Sunny 63 17.2 47 8.3 56 56 WNW 5 7 29.7 1006 10 16.0934 0 0
9:53 am 09:53 Sunny 67 19.4 47 8.3 49 49 WNW 9 15 29.67 1005 10 16.0934 0 0
10:53 am 10:53 Sunny 74 23.3 48 8.9 40 40 NW 6 9 29.66 1004 10 16.0934 0 0
11:53 am 11:53 Sunny 79 26.1 47 8.3 32 32 Calm 29.64 1004 10 16.0934 0 0
12:53 pm 12:53 Sunny 83 28.3 44 6.7 25 25 WNW 12 19 29.62 1003 10 16.0934 0 0
1:53 pm 13:53 Sunny 85 29.4 45 7.2 25 25 W 12 19 29.62 1003 10 16.0934 0 0
2:53 pm 14:53 Sunny 84 28.9 43 6.1 24 24 W 8 13 29.6 1003 10 16.0934 0 0
3:53 pm 15:53 Sunny 81 27.2 45 7.2 28 28 VRB 6 9 29.6 1002 10 16.0934 0 0
4:53 pm 16:53 Sunny 77 25 45 7.2 32 32 SSE 7 11 29.61 1003 10 16.0934 0 0
5:53 pm 17:53 Mostly Cloudy 75 23.9 41 5 29 29 SW 8 13 29.66 1004 10 16.0934 0 0
6:53 pm 18:53 Sunny 75 23.9 42 5.6 31 31 E 14 22 29.63 1003 10 16.0934 0 0
7:53 pm 19:53 Cloudy with Light Rain 71 21.7 45 7.2 39 39 SW 24 39 29.7 1006 10 16.0934 0 0.0254
8:53 pm 20:53 Partly Cloudy 67 19.4 47 8.3 49 49 SW 7 11 29.72 1007 10 16.0934 0 0.0254
9:53 pm 21:53 Cloudy 63 17.2 48 8.9 58 58 ENE 3 6 29.73 1007 10 16.0934 0 0
10:53 pm 22:53 Clear 57 13.9 47 8.3 69 69 ESE 8 13 29.73 1007 10 16.0934 0 0
11:53 pm 23:53 Clear 55 12.8 46 7.8 72 72 NNW 3 6 29.71 1006 10 16.0934 0 0

Powered by AerisWeather